createdAt,value
2023-04-12T00:00:03.425Z,4.00
2023-04-12T00:02:55.582Z,3.90
2023-04-12T00:05:33.284Z,4.10
2023-04-12T00:08:16.114Z,3.50
2023-04-12T00:10:52.178Z,3.60
2023-04-12T00:13:24.708Z,4.00
2023-04-12T00:19:30.068Z,4.20
2023-04-12T00:22:16.815Z,4.40
2023-04-12T00:24:56.368Z,4.30
2023-04-12T00:27:56.791Z,3.40
2023-04-12T00:30:29.900Z,4.30
2023-04-12T00:33:04.932Z,4.60
2023-04-12T00:35:40.936Z,4.10
2023-04-12T00:38:16.086Z,3.90
2023-04-12T00:40:49.797Z,4.50
2023-04-12T00:43:37.165Z,3.70
2023-04-12T00:46:07.832Z,3.90
2023-04-12T00:48:53.733Z,3.90
2023-04-12T00:51:34.883Z,4.20
2023-04-12T00:54:10.592Z,4.50
2023-04-12T00:56:46.469Z,4.30
2023-04-12T00:59:21.895Z,4.70
2023-04-12T01:02:06.974Z,4.80
2023-04-12T01:05:22.769Z,3.80
2023-04-12T01:12:13.440Z,3.90
2023-04-12T01:14:59.388Z,3.90
2023-04-12T01:18:16.910Z,5.00
2023-04-12T01:21:16.975Z,4.10
2023-04-12T01:24:46.238Z,4.40
2023-04-12T01:31:20.760Z,4.10
2023-04-12T01:34:28.065Z,4.00
2023-04-12T01:37:25.200Z,3.50
2023-04-12T01:43:55.372Z,4.00
2023-04-12T01:46:35.552Z,4.30
2023-04-12T01:49:22.705Z,4.50
2023-04-12T01:52:57.211Z,3.90
2023-04-12T01:55:43.509Z,4.00
2023-04-12T02:15:54.378Z,4.00
2023-04-12T02:19:08.483Z,4.50
2023-04-12T02:22:08.841Z,4.40
2023-04-12T02:24:40.621Z,4.50
2023-04-12T02:27:22.594Z,5.00
2023-04-12T02:30:20.870Z,4.60
2023-04-12T02:33:15.243Z,4.00
2023-04-12T02:36:05.527Z,3.80
2023-04-12T02:42:28.943Z,4.20
2023-04-12T02:45:22.032Z,4.50
2023-04-12T02:48:36.007Z,4.20
2023-04-12T02:51:10.863Z,4.00
2023-04-12T02:53:57.145Z,4.20
2023-04-12T02:56:57.947Z,3.90
2023-04-12T03:03:41.422Z,4.10
2023-04-12T03:06:56.761Z,4.00
2023-04-12T03:10:15.888Z,4.00
2023-04-12T03:13:37.378Z,4.30
2023-04-12T03:16:39.817Z,5.10
2023-04-12T03:19:29.256Z,3.90
2023-04-12T03:22:05.830Z,4.20
2023-04-12T03:24:54.503Z,4.70
2023-04-12T03:27:29.196Z,4.10
2023-04-12T03:30:26.200Z,4.30
2023-04-12T03:33:16.624Z,4.70
2023-04-12T03:36:09.352Z,4.80
2023-04-12T03:38:58.061Z,4.40
2023-04-12T03:41:42.346Z,4.30
2023-04-12T03:44:14.966Z,4.60
2023-04-12T03:46:49.493Z,4.70
2023-04-12T03:56:08.156Z,4.90
2023-04-12T03:58:57.311Z,4.80
2023-04-12T04:01:54.050Z,5.20
2023-04-12T04:07:40.103Z,4.90
2023-04-12T04:10:14.850Z,4.20
2023-04-12T04:22:34.179Z,5.80
2023-04-12T04:30:22.668Z,5.40
2023-04-12T04:33:20.469Z,5.50
2023-04-12T04:50:37.379Z,4.70
2023-04-12T04:58:19.756Z,5.90
2023-04-12T05:05:00.680Z,5.70
2023-04-12T05:08:12.186Z,4.90
2023-04-12T05:11:30.690Z,4.40
2023-04-12T05:14:14.546Z,5.50
2023-04-12T05:18:18.284Z,5.40
2023-04-12T05:26:36.523Z,5.60
2023-04-12T05:30:01.476Z,5.60
2023-04-12T05:32:57.376Z,4.80
2023-04-12T05:35:43.568Z,4.70
2023-04-12T05:39:41.094Z,5.10
2023-04-12T05:43:31.134Z,5.00
2023-04-12T05:47:17.626Z,5.60
2023-04-12T05:50:59.557Z,5.30
2023-04-12T06:12:57.155Z,5.00
2023-04-12T06:15:28.323Z,4.50
2023-04-12T06:17:58.853Z,4.90
2023-04-12T06:20:42.569Z,5.40
2023-04-12T06:23:15.187Z,4.40
2023-04-12T06:25:44.251Z,4.50
2023-04-12T06:28:15.156Z,4.30
2023-04-12T06:30:47.891Z,4.20
2023-04-12T06:33:16.328Z,4.60
2023-04-12T06:35:46.016Z,5.10
2023-04-12T06:38:15.180Z,4.50
2023-04-12T06:47:48.189Z,4.40
2023-04-12T06:55:24.656Z,4.30
2023-04-12T11:32:46.982Z,3.80
2023-04-12T11:35:37.471Z,3.30
2023-04-12T11:52:40.083Z,10.80
2023-04-12T12:09:04.879Z,12.10
2023-04-12T12:54:39.464Z,4.40
2023-04-12T13:50:40.670Z,6.80
2023-04-12T14:49:52.444Z,5.90
2023-04-12T14:52:59.370Z,5.80
2023-04-12T15:03:49.462Z,4.30
2023-04-12T15:07:50.796Z,4.50
2023-04-12T15:32:10.625Z,2.90
2023-04-12T15:35:04.650Z,2.90
2023-04-12T15:39:00.760Z,2.60
2023-04-12T15:42:49.892Z,2.60
2023-04-12T15:45:35.782Z,2.20
2023-04-12T15:57:05.002Z,3.60
2023-04-12T16:05:09.603Z,3.40
2023-04-12T16:09:22.124Z,2.90
2023-04-12T16:17:10.427Z,3.10
2023-04-12T16:24:57.693Z,2.80
2023-04-12T16:32:06.317Z,4.40
2023-04-12T16:35:15.937Z,3.30
2023-04-12T16:38:38.751Z,3.40
2023-04-12T16:55:14.615Z,4.20
2023-04-12T16:58:50.243Z,4.90
2023-04-12T17:12:28.366Z,6.10
2023-04-12T17:15:31.647Z,5.50
2023-04-12T17:18:25.836Z,6.20
2023-04-12T17:21:50.055Z,6.50
2023-04-12T17:25:28.134Z,6.80
2023-04-12T17:28:21.049Z,6.70
2023-04-12T17:31:59.526Z,6.90
2023-04-12T17:36:11.325Z,6.70
2023-04-12T17:38:58.519Z,6.40
2023-04-12T17:41:51.948Z,5.60
2023-04-12T17:46:08.501Z,4.40
2023-04-12T17:49:26.890Z,5.20
2023-04-12T17:52:04.365Z,4.60
2023-04-12T18:00:12.371Z,6.00
2023-04-12T18:03:12.459Z,5.90
2023-04-12T18:06:29.736Z,6.40
2023-04-12T18:09:29.045Z,5.20
2023-04-12T18:13:23.591Z,6.90
2023-04-12T18:16:07.708Z,5.70
2023-04-12T18:18:50.425Z,5.50
2023-04-12T18:24:54.369Z,4.70
2023-04-12T18:31:44.139Z,4.60
2023-04-12T18:38:54.204Z,5.60
2023-04-12T18:41:38.484Z,4.60
2023-04-12T18:44:53.378Z,4.70
2023-04-12T18:55:41.910Z,4.90
2023-04-12T18:58:23.753Z,4.90
2023-04-12T19:01:09.345Z,4.80
2023-04-12T19:04:29.304Z,4.80
2023-04-12T19:07:28.021Z,5.00
2023-04-12T19:10:02.760Z,4.20
2023-04-12T19:13:35.620Z,3.50
2023-04-12T19:16:55.035Z,4.90
2023-04-12T19:24:01.851Z,3.40
2023-04-12T19:27:27.696Z,3.90
2023-04-12T19:30:18.125Z,2.80
2023-04-12T19:33:24.368Z,4.00
2023-04-12T19:36:29.568Z,3.50
2023-04-12T19:44:10.145Z,4.20
2023-04-12T19:52:22.840Z,4.70
2023-04-12T19:55:02.111Z,3.70
2023-04-12T19:58:05.065Z,5.30
2023-04-12T20:01:11.672Z,3.60
2023-04-12T20:04:40.854Z,4.30
2023-04-12T20:07:37.403Z,4.40
2023-04-12T20:10:22.978Z,3.90
2023-04-12T20:13:14.453Z,4.00
2023-04-12T20:15:53.048Z,3.20
2023-04-12T20:18:58.675Z,3.40
2023-04-12T20:21:48.164Z,3.20
2023-04-12T20:27:18.390Z,4.10
2023-04-12T20:30:10.569Z,3.30
2023-04-12T20:33:29.447Z,3.80
2023-04-12T20:36:27.827Z,3.80
2023-04-12T20:39:41.956Z,3.20
2023-04-12T20:42:36.417Z,3.70
2023-04-12T20:45:49.803Z,3.90
2023-04-12T20:48:34.608Z,3.90
2023-04-12T20:51:47.024Z,3.70
2023-04-12T20:54:54.414Z,2.90
2023-04-12T20:58:23.333Z,4.20
2023-04-12T21:01:48.187Z,3.50
2023-04-12T21:04:36.121Z,4.10
2023-04-12T21:07:13.447Z,3.80
2023-04-12T21:10:49.009Z,3.50
2023-04-12T21:13:28.778Z,3.40
2023-04-12T21:21:00.279Z,3.10
2023-04-12T21:28:34.877Z,3.90
2023-04-12T21:31:19.034Z,4.10
2023-04-12T21:34:24.908Z,3.50
2023-04-12T21:37:57.835Z,3.70
2023-04-12T21:40:31.230Z,3.70
2023-04-12T21:55:19.977Z,3.80
2023-04-12T21:57:50.951Z,3.90
2023-04-12T22:00:31.582Z,3.40
2023-04-12T22:03:07.921Z,3.90
2023-04-12T22:07:01.539Z,3.10
2023-04-12T22:10:30.408Z,3.40
2023-04-12T22:13:02.540Z,3.70
2023-04-12T22:15:43.553Z,3.30
2023-04-12T22:18:21.510Z,3.40
2023-04-12T22:21:07.453Z,3.50
2023-04-12T22:23:46.203Z,3.10
2023-04-12T22:26:19.829Z,3.50
2023-04-12T22:33:15.015Z,3.20
2023-04-12T22:35:51.879Z,3.80
2023-04-12T22:38:44.049Z,4.20
2023-04-12T22:41:40.219Z,3.40
2023-04-12T22:44:21.783Z,3.40
2023-04-12T22:47:19.176Z,4.00
2023-04-12T22:50:59.834Z,3.20
2023-04-12T22:53:36.108Z,3.10
2023-04-12T22:56:45.711Z,2.90
2023-04-12T22:59:55.066Z,3.40
2023-04-12T23:02:33.050Z,3.50
2023-04-12T23:05:10.204Z,3.20
2023-04-12T23:07:42.077Z,3.20
2023-04-12T23:10:22.123Z,3.10
2023-04-12T23:12:59.964Z,3.20
2023-04-12T23:15:37.238Z,3.70
2023-04-12T23:18:11.007Z,2.90
2023-04-12T23:20:44.854Z,3.10
2023-04-12T23:25:55.554Z,3.30
2023-04-12T23:28:32.324Z,3.00
2023-04-12T23:31:08.746Z,3.10
2023-04-12T23:33:43.456Z,2.70
2023-04-12T23:36:59.811Z,2.60
2023-04-12T23:39:35.185Z,3.70
2023-04-12T23:42:21.644Z,3.50
2023-04-12T23:45:34.030Z,2.70
2023-04-12T23:48:09.375Z,2.50
2023-04-12T23:50:42.181Z,3.10
2023-04-12T23:53:25.566Z,3.60
2023-04-12T23:56:00.764Z,3.40
2023-04-12T23:58:34.937Z,3.20
